Latest Weather Observations for Cerberus

IDV60801

Issued at 3:35 pm EDT Saturday 29 November 2014 (issued every 30 minutes, with the page automatically refreshed every 10 minutes)

About weather observations | Map of weather stations | Latest weather observations for VIC | Other Formats
Station Details ID: 086361 Name: CERBERUS Lat: -38.36 Lon: 145.18 Height: 12.69 m
Data from the previous 72 hours. | See also: Recent months at Cerberus
Date/Time
EDT
Temp
°C
App
Temp
°C
Dew
Point
Rel
Hum
%
Delta-T
°C
Wind Press
QNH
hPa
Press
MSL
hPa
Rain
since 9 am
mm
Dir
 
Spd
km/h
Gust
km/h
Spd
kts
Gust
kts
29/03:30pm 20.2 18.7 14.1 68 3.5 S 15 22 8 12 1013.3 1013.3 0.0
29/03:00pm 20.7 19.3 14.4 67 3.7 S 15 22 8 12 1013.4 1013.4 0.0
29/02:30pm 21.1 20.0 14.3 65 4.0 SSE 13 20 7 11 1013.7 1013.6 0.0
29/02:00pm 20.8 20.3 13.7 64 4.1 ESE 9 13 5 7 1014.1 1014.0 0.0
29/01:30pm 20.6 19.9 13.3 63 4.2 SE 9 17 5 9 1014.6 1014.5 0.0
29/01:00pm 20.0 19.7 13.2 65 3.9 ENE 7 13 4 7 1014.8 1014.7 0.0
29/12:30pm 18.8 18.5 13.4 71 3.1 SE 7 15 4 8 1015.3 1015.2 0.0
29/12:00pm 18.0 16.8 12.7 71 3.0 E 11 15 6 8 1015.9 1015.8 0.0
29/11:30am 17.6 16.5 12.1 70 3.0 E 9 15 5 8 1016.1 1016.0 0.0
29/11:00am 16.7 15.9 11.6 72 2.8 SE 7 15 4 8 1016.5 1016.4 0.0
29/10:30am 16.0 15.5 12.0 77 2.2 SE 6 9 3 5 1017.1 1017.0 0.0
29/10:00am 15.2 14.5 12.0 81 1.7 SE 7 13 4 7 1017.3 1017.2 0.0
29/09:30am 14.6 13.5 12.1 85 1.4 E 9 15 5 8 1017.7 1017.6 0.0
29/09:00am 14.3 13.8 12.2 87 1.1 NE 6 13 3 7 1018.0 1017.9 0.0
29/08:30am 13.5 12.3 11.6 88 1.0 ENE 9 13 5 7 1018.1 1018.0 0.0
29/08:00am 13.6 12.9 12.0 90 0.9 ENE 7 11 4 6 1018.0 1017.9 0.0
29/07:30am 13.4 13.3 12.0 91 0.8 NE 4 7 2 4 1017.9 1017.8 0.0
29/07:00am 12.5 12.5 11.1 91 0.7 S 2 4 1 2 1017.8 1017.7 0.0
29/06:30am 10.6 10.4 9.2 91 0.7 CALM 0 4 0 2 1017.9 1017.8 0.0
29/06:00am 11.1 10.6 9.5 90 0.8 S 2 4 1 2 1017.8 1017.7 0.0
29/05:30am 11.1 10.3 9.5 90 0.8 S 4 6 2 3 1017.8 1017.7 0.0
29/05:00am 11.3 10.5 9.7 90 0.8 S 4 6 2 3 1017.6 1017.5 0.0
29/04:30am 11.8 11.1 10.0 89 0.9 S 4 6 2 3 1017.2 1017.1 0.0
29/04:00am 12.1 10.9 10.3 89 0.9 S 7 13 4 7 1017.4 1017.3 0.0
29/03:30am 11.7 10.4 9.9 89 0.9 S 7 9 4 5 1017.4 1017.3 0.0
29/03:00am 11.5 10.4 9.8 89 0.9 S 6 7 3 4 1017.6 1017.5 0.0
29/02:30am 11.6 10.3 9.9 89 0.9 S 7 7 4 4 1017.8 1017.7 0.0
29/02:00am 11.1 9.7 9.4 89 0.9 S 7 11 4 6 1018.0 1017.9 0.0
29/01:30am 10.8 9.4 8.7 87 1.0 S 6 7 3 4 1018.2 1018.1 0.0
29/01:00am 11.1 10.1 9.0 87 1.0 S 4 6 2 3 1018.5 1018.4 0.0
29/12:30am 11.2 9.8 8.9 86 1.1 S 6 7 3 4 1019.0 1018.9 0.0
29/12:00am 11.1 9.7 8.7 85 1.2 S 6 7 3 4 1019.6 1019.5 0.0
 
Date/Time
EDT
Temp
°C
App
Temp
°C
Dew
Point
Rel
Hum
%
Delta-T
°C
Wind Press
QNH
hPa
Press
MSL
hPa
Rain
since 9 am
mm
Dir
 
Spd
km/h
Gust
km/h
Spd
kts
Gust
kts
28/11:30pm 11.4 10.0 9.0 85 1.2 S 6 9 3 5 1019.9 1019.8 0.0
28/11:00pm 11.0 9.5 8.4 84 1.3 S 6 7 3 4 1020.3 1020.2 0.0
28/10:30pm 11.5 10.4 8.5 82 1.5 SSE 4 7 2 4 1020.8 1020.7 0.0
28/10:00pm 11.9 10.5 8.7 81 1.6 SSE 6 7 3 4 1020.9 1020.8 0.0
28/09:30pm 12.3 10.9 8.8 79 1.7 SSE 6 9 3 5 1020.5 1020.4 0.0
28/09:00pm 12.6 10.7 8.9 78 1.8 S 9 13 5 7 1020.4 1020.3 0.0
28/08:30pm 13.1 10.7 8.8 75 2.2 S 11 17 6 9 1020.4 1020.3 0.0
28/08:00pm 13.9 10.8 8.9 72 2.5 S 15 20 8 11 1020.5 1020.4 0.0
28/07:30pm 14.7 11.5 8.6 67 3.1 S 15 24 8 13 1020.6 1020.5 0.0
28/07:00pm 15.0 11.3 9.4 69 2.9 S 19 26 10 14 1020.3 1020.2 0.0
28/06:30pm 15.6 12.0 9.7 68 3.1 S 19 26 10 14 1020.0 1019.9 0.0
28/06:00pm 16.1 13.4 10.4 69 3.0 S 15 22 8 12 1020.0 1019.9 0.0
28/05:30pm 16.0 12.8 10.1 68 3.1 SSW 17 26 9 14 1020.2 1020.1 0.0
28/05:00pm 16.0 12.7 9.7 66 3.3 SSW 17 26 9 14 1020.3 1020.2 0.0
28/04:30pm 16.1 13.2 9.8 66 3.3 SW 15 22 8 12 1020.4 1020.3 0.0
28/04:00pm 16.2 12.7 10.3 68 3.1 SSW 19 30 10 16 1020.8 1020.7 0.0
28/03:30pm 16.5 13.4 10.4 67 3.2 SSW 17 26 9 14 1021.1 1021.0 0.0
28/03:00pm 16.7 13.7 10.8 68 3.1 SSW 17 24 9 13 1021.4 1021.3 0.0
28/02:30pm 16.5 13.9 10.6 68 3.1 SSW 15 22 8 12 1021.7 1021.6 0.0
28/02:00pm 16.7 13.9 10.1 65 3.5 SSW 15 24 8 13 1022.0 1021.9 0.0
28/01:30pm 16.5 14.0 9.7 64 3.6 SSW 13 24 7 13 1022.4 1022.3 0.0
28/01:00pm 16.6 13.8 10.0 65 3.5 S 15 28 8 15 1022.7 1022.6 0.0
28/12:30pm 16.6 13.8 10.0 65 3.5 SSW 15 26 8 14 1022.9 1022.8 0.0
28/12:00pm 16.0 12.7 9.4 65 3.4 SW 17 22 9 12 1023.2 1023.1 0.0
28/11:30am 16.5 14.4 9.9 65 3.5 SSW 11 19 6 10 1023.2 1023.1 0.0
28/11:00am 16.6 15.3 9.1 61 3.9 ESE 6 11 3 6 1023.4 1023.3 0.0
28/10:30am 15.9 14.4 8.4 61 3.8 SW 6 9 3 5 1023.8 1023.7 0.0
28/10:00am 15.5 14.3 9.6 68 3.0 S 6 11 3 6 1024.1 1024.0 0.0
28/09:30am 14.5 12.8 8.2 66 3.2 WSW 7 11 4 6 1024.2 1024.1 0.0
28/09:00am 15.5 15.0 9.4 67 3.1 SW 2 7 1 4 1024.2 1024.1 0.0
28/08:30am 14.2 13.6 9.0 71 2.6 SE 2 6 1 3 1024.3 1024.3 0.0
28/08:00am 13.4 12.1 9.3 76 2.1 S 6 11 3 6 1024.3 1024.3 0.0
28/07:30am 12.9 12.3 10.3 84 1.3 SSE 4 7 2 4 1024.0 1023.9 0.0
28/07:00am 12.0 11.3 9.9 87 1.1 SSE 4 7 2 4 1023.9 1023.8 0.0
28/06:30am 10.7 9.7 8.8 88 0.9 SSE 4 6 2 3 1023.5 1023.4 0.0
28/06:00am 9.0 7.9 6.8 86 1.0 SSE 2 4 1 2 1023.3 1023.2 0.0
28/05:30am 10.2 9.0 8.0 86 1.1 SSE 4 6 2 3 1022.8 1022.7 0.0
28/05:00am 9.9 8.2 7.5 85 1.1 S 6 9 3 5 1022.5 1022.4 0.0
28/04:30am 10.5 8.9 7.9 84 1.3 SSE 6 7 3 4 1022.4 1022.3 0.0
28/04:00am 10.6 9.0 8.2 85 1.2 S 6 9 3 5 1022.5 1022.4 0.0
28/03:30am 10.4 8.8 7.8 84 1.3 S 6 9 3 5 1022.5 1022.4 0.0
28/03:00am 10.3 8.4 7.5 83 1.3 S 7 11 4 6 1022.5 1022.4 0.0
28/02:30am 10.9 9.3 8.0 82 1.4 S 6 9 3 5 1022.9 1022.8 0.0
28/02:00am 11.2 9.6 8.1 81 1.5 SSE 6 9 3 5 1023.1 1023.0 0.0
28/01:30am 11.7 10.6 8.6 81 1.5 SSE 4 6 2 3 1023.4 1023.3 0.0
28/01:00am 11.8 10.4 8.8 82 1.5 SSE 6 9 3 5 1023.7 1023.6 0.0
28/12:30am 11.7 10.2 9.1 84 1.3 SSE 7 9 4 5 1024.1 1024.0 0.0
28/12:00am 11.4 10.0 8.8 84 1.3 SSE 6 11 3 6 1024.3 1024.3 0.0
 
Date/Time
EDT
Temp
°C
App
Temp
°C
Dew
Point
Rel
Hum
%
Delta-T
°C
Wind Press
QNH
hPa
Press
MSL
hPa
Rain
since 9 am
mm
Dir
 
Spd
km/h
Gust
km/h
Spd
kts
Gust
kts
27/11:30pm 11.2 10.1 8.6 84 1.3 SSE 4 7 2 4 1024.4 1024.4 0.0
27/11:00pm 10.8 9.1 8.2 84 1.3 S 7 11 4 6 1024.7 1024.7 0.0
27/10:30pm 10.3 8.4 7.5 83 1.3 S 7 9 4 5 1024.8 1024.8 0.0
27/10:00pm 11.0 9.8 7.9 81 1.5 SSE 4 6 2 3 1025.0 1025.0 0.0
27/09:30pm 11.6 9.9 8.3 80 1.6 S 7 13 4 7 1024.8 1024.8 0.0
27/09:00pm 11.8 10.0 8.1 78 1.8 S 7 15 4 8 1024.6 1024.6 0.0
27/08:30pm 12.2 10.1 8.1 76 2.0 S 9 15 5 8 1024.5 1024.5 0.0
27/08:00pm 12.9 10.4 8.0 72 2.4 S 11 19 6 10 1024.7 1024.7 0.0
27/07:30pm 13.9 10.7 8.3 69 2.8 S 15 20 8 11 1024.7 1024.7 0.0
27/07:00pm 14.3 10.7 8.5 68 2.9 S 17 24 9 13 1024.7 1024.7 0.0
27/06:30pm 14.4 11.1 8.1 66 3.1 S 15 24 8 13 1024.7 1024.7 0.0
27/06:00pm 14.5 10.4 7.8 64 3.3 S 19 26 10 14 1024.8 1024.8 0.0
27/05:30pm 15.3 12.1 8.3 63 3.5 S 15 28 8 15 1024.8 1024.8 0.0
27/05:00pm 15.5 11.5 8.3 62 3.6 S 19 28 10 15 1024.9 1024.9 0.0
27/04:30pm 15.7 12.5 8.4 62 3.7 SSW 15 24 8 13 1024.9 1024.9 0.0
27/04:00pm 15.6 12.4 8.4 62 3.6 S 15 26 8 14 1025.1 1025.1 0.0
27/03:30pm 15.5 11.4 8.0 61 3.8 S 19 28 10 15 1025.4 1025.4 0.0
27/03:00pm 15.3 11.9 7.6 60 3.8 S 15 24 8 13 1025.5 1025.5 0.0
27/02:30pm 15.8 12.2 8.5 62 3.7 S 17 26 9 14 1025.5 1025.5 0.0
27/02:00pm 15.6 11.9 7.9 60 3.8 SSW 17 26 9 14 1025.6 1025.6 0.0
27/01:30pm 16.7 13.0 9.4 62 3.8 S 19 30 10 16 1025.8 1025.8 0.0
27/01:00pm 15.9 12.7 8.4 61 3.8 S 15 24 8 13 1025.9 1025.9 0.0
27/12:30pm 15.3 11.4 7.3 59 4.0 SSW 17 26 9 14 1026.0 1026.0 0.0
27/12:00pm 15.6 12.0 8.4 62 3.6 S 17 28 9 15 1026.2 1026.2 0.0
27/11:30am 15.1 11.8 6.4 56 4.2 S 13 30 7 16 1026.3 1026.3 0.0
27/11:00am 14.8 11.3 7.1 60 3.8 S 15 24 8 13 1026.5 1026.5 0.0
27/10:30am 14.8 11.0 7.6 62 3.6 S 17 24 9 13 1026.5 1026.5 0.0
27/10:00am 14.1 11.2 6.5 60 3.6 SSW 11 19 6 10 1026.5 1026.5 0.0
27/09:30am 14.0 11.5 6.6 61 3.6 S 9 17 5 9 1026.5 1026.5 0.0
27/09:00am 13.4 10.0 6.0 61 3.5 S 13 22 7 12 1026.5 1026.5 0.8
27/08:30am 13.4 10.2 6.7 64 3.2 S 13 20 7 11 1026.3 1026.3 0.8
27/08:00am 13.6 10.3 6.5 62 3.4 S 13 24 7 13 1026.0 1026.0 0.8
27/07:30am 13.1 9.9 6.7 65 3.1 S 13 20 7 11 1025.7 1025.7 0.8
27/07:00am 12.6 11.0 6.4 66 2.9 SSE 4 6 2 3 1025.4 1025.4 0.8
27/06:30am 12.5 9.5 6.1 65 3.0 SSE 11 17 6 9 1025.2 1025.2 0.8
27/06:00am 12.7 10.1 6.3 65 3.0 SSW 9 13 5 7 1024.8 1024.8 0.8
27/05:30am 12.4 10.4 6.2 66 2.9 S 6 11 3 6 1024.5 1024.5 0.8
27/05:00am 12.2 9.5 5.6 64 3.1 S 9 17 5 9 1024.2 1024.1 0.8
27/04:30am 12.4 10.0 5.3 62 3.3 SSE 7 13 4 7 1024.0 1023.9 0.8
27/04:00am 12.6 9.2 6.0 64 3.1 S 13 20 7 11 1023.7 1023.6 0.8
27/03:30am 12.8 9.4 5.9 63 3.2 S 13 20 7 11 1023.7 1023.6 0.8
27/03:00am 12.3 9.6 5.5 63 3.1 S 9 17 5 9 1023.9 1023.8 0.8
27/02:30am 12.7 10.6 6.5 66 3.0 SSE 7 11 4 6 1024.0 1023.9 0.8
27/02:00am 12.7 10.1 6.1 64 3.1 S 9 13 5 7 1024.0 1023.9 0.8
27/01:30am 12.8 10.1 5.7 62 3.3 SSW 9 15 5 8 1024.2 1024.1 0.8
27/01:00am 12.8 9.7 5.5 61 3.4 S 11 20 6 11 1024.4 1024.4 0.8
27/12:30am 13.1 9.7 5.8 61 3.4 S 13 19 7 10 1024.5 1024.5 0.8
27/12:00am 13.4 10.1 6.3 62 3.4 S 13 22 7 12 1024.6 1024.6 0.8
 
Date/Time
EDT
Temp
°C
App
Temp
°C
Dew
Point
Rel
Hum
%
Delta-T
°C
Wind Press
QNH
hPa
Press
MSL
hPa
Rain
since 9 am
mm
Dir
 
Spd
km/h
Gust
km/h
Spd
kts
Gust
kts
26/11:30pm 13.5 10.2 6.4 62 3.4 S 13 26 7 14 1024.6 1024.6 0.8
26/11:00pm 13.5 10.6 6.4 62 3.4 S 11 17 6 9 1024.6 1024.6 0.8
26/10:30pm 13.6 10.7 6.5 62 3.4 S 11 17 6 9 1024.4 1024.4 0.8
26/10:00pm 13.4 11.1 7.4 67 2.9 S 9 15 5 8 1024.1 1024.0 0.8
26/09:30pm 13.3 10.1 6.9 65 3.1 SW 13 19 7 10 1023.9 1023.8 0.8
26/09:00pm 13.0 8.9 6.4 64 3.1 SW 17 26 9 14 1023.6 1023.5 0.8
26/08:30pm 13.4 8.6 5.8 60 3.6 SSW 20 32 11 17 1023.4 1023.3 0.8
26/08:00pm 14.0 10.3 7.8 66 3.1 SSW 17 28 9 15 1023.3 1023.2 0.8
26/07:30pm 14.1 10.7 7.6 65 3.2 SSW 15 24 8 13 1023.1 1023.0 0.8
26/07:00pm 14.8 10.5 7.1 60 3.8 SSW 19 30 10 16 1022.7 1022.6 0.8
26/06:30pm 15.3 11.2 7.8 61 3.7 SSW 19 30 10 16 1022.4 1022.3 0.8
26/06:00pm 15.9 12.4 8.6 62 3.7 SSW 17 28 9 15 1022.4 1022.3 0.8
26/05:30pm 15.2 11.0 8.4 64 3.4 SW 20 28 11 15 1022.2 1022.1 0.8
26/05:00pm 15.5 11.7 9.0 65 3.3 SW 19 30 10 16 1022.1 1022.0 0.8
26/04:30pm 15.6 11.9 9.3 66 3.2 SW 19 28 10 15 1022.2 1022.1 0.8
26/04:00pm 15.7 12.1 9.8 68 3.1 SW 19 28 10 15 1022.1 1022.0 0.8

Other Formats:

Comma delimited format used in spreadsheet applications
http://www.bom.gov.au/fwo/IDV60801/IDV60801.94898.axf

JavaScript Object Notation format (JSON) in row-major order
http://www.bom.gov.au/fwo/IDV60801/IDV60801.94898.json